createdAt,value
2022-11-03T00:01:42.315Z,2.43
2022-11-03T00:04:13.594Z,2.77
2022-11-03T00:06:41.375Z,2.00
2022-11-03T00:09:09.474Z,2.33
2022-11-03T00:11:37.558Z,2.00
2022-11-03T00:14:04.998Z,2.20
2022-11-03T00:16:32.198Z,2.20
2022-11-03T00:18:59.259Z,1.93
2022-11-03T00:21:26.318Z,2.40
2022-11-03T00:23:53.388Z,2.50
2022-11-03T00:26:22.180Z,2.40
2022-11-03T00:28:53.518Z,2.23
2022-11-03T00:31:26.566Z,1.87
2022-11-03T00:33:54.000Z,2.40
2022-11-03T00:36:22.585Z,2.40
2022-11-03T00:38:49.779Z,2.10
2022-11-03T00:41:17.680Z,1.77
2022-11-03T00:43:44.825Z,2.30
2022-11-03T00:46:11.894Z,2.13
2022-11-03T00:48:38.957Z,2.40
2022-11-03T00:51:05.998Z,2.50
2022-11-03T00:53:33.928Z,2.30
2022-11-03T00:56:01.857Z,2.20
2022-11-03T00:58:29.267Z,2.30
2022-11-03T01:01:03.704Z,2.00
2022-11-03T01:03:30.840Z,2.53
2022-11-03T01:06:16.296Z,2.40
2022-11-03T01:08:43.410Z,2.20
2022-11-03T01:11:30.646Z,2.20
2022-11-03T01:13:57.910Z,2.73
2022-11-03T01:16:24.989Z,2.50
2022-11-03T01:18:52.074Z,2.10
2022-11-03T01:21:19.517Z,2.20
2022-11-03T01:23:47.207Z,2.50
2022-11-03T01:26:15.003Z,2.30
2022-11-03T01:28:43.244Z,2.20
2022-11-03T01:31:12.149Z,2.47
2022-11-03T01:33:39.771Z,2.37
2022-11-03T01:36:07.350Z,2.80
2022-11-03T01:38:35.623Z,2.40
2022-11-03T01:41:03.335Z,2.50
2022-11-03T01:43:32.205Z,2.33
2022-11-03T01:46:05.260Z,2.60
2022-11-03T01:48:33.665Z,2.30
2022-11-03T01:51:01.172Z,2.30
2022-11-03T01:53:29.234Z,2.20
2022-11-03T01:55:57.006Z,2.10
2022-11-03T01:58:27.194Z,2.50
2022-11-03T02:00:55.515Z,2.23
2022-11-03T02:03:23.728Z,2.40
2022-11-03T02:05:51.657Z,2.37
2022-11-03T02:08:18.666Z,2.30
2022-11-03T02:10:49.260Z,1.90
2022-11-03T02:13:18.801Z,2.40
2022-11-03T02:15:47.002Z,2.27
2022-11-03T02:18:14.879Z,2.17
2022-11-03T02:20:42.090Z,2.20
2022-11-03T02:23:32.669Z,2.10
2022-11-03T02:26:00.287Z,2.57
2022-11-03T02:28:31.343Z,2.10
2022-11-03T02:31:03.288Z,2.43
2022-11-03T02:33:46.385Z,2.40
2022-11-03T02:36:18.775Z,2.20
2022-11-03T02:38:53.736Z,2.30
2022-11-03T02:41:21.154Z,2.10
2022-11-03T02:43:49.682Z,2.13
2022-11-03T02:46:17.189Z,2.30
2022-11-03T02:48:44.304Z,2.20
2022-11-03T02:51:11.806Z,2.00
2022-11-03T02:53:54.411Z,2.57
2022-11-03T02:56:22.599Z,2.20
2022-11-03T02:59:02.712Z,2.40
2022-11-03T03:01:34.552Z,2.03
2022-11-03T03:04:04.460Z,2.40
2022-11-03T03:06:36.020Z,2.27
2022-11-03T03:09:08.546Z,2.27
2022-11-03T03:11:37.985Z,2.30
2022-11-03T03:14:14.436Z,2.10
2022-11-03T03:17:01.229Z,2.30
2022-11-03T03:19:34.563Z,2.20
2022-11-03T03:22:04.408Z,2.20
2022-11-03T03:24:36.286Z,3.00
2022-11-03T03:27:05.051Z,2.10
2022-11-03T03:29:41.485Z,2.40
2022-11-03T03:32:09.934Z,2.10
2022-11-03T03:34:38.455Z,2.50
2022-11-03T03:37:05.948Z,2.27
2022-11-03T03:39:34.626Z,2.27
2022-11-03T03:42:02.690Z,2.23
2022-11-03T03:44:30.611Z,2.30
2022-11-03T03:47:17.892Z,2.50
2022-11-03T03:49:44.986Z,2.50
2022-11-03T03:52:12.500Z,2.60
2022-11-03T03:54:39.550Z,2.83
2022-11-03T03:57:07.574Z,2.47
2022-11-03T03:59:34.650Z,2.73
2022-11-03T04:02:02.973Z,2.57
2022-11-03T04:04:30.106Z,2.43
2022-11-03T04:07:16.133Z,2.20
2022-11-03T04:09:43.226Z,2.93
2022-11-03T04:12:28.812Z,2.30
2022-11-03T04:15:14.805Z,2.37
2022-11-03T04:18:03.119Z,2.50
2022-11-03T04:20:49.446Z,2.40
2022-11-03T04:23:16.671Z,2.60
2022-11-03T04:25:48.167Z,2.93
2022-11-03T04:28:15.862Z,2.53
2022-11-03T04:30:42.960Z,2.30
2022-11-03T04:33:30.243Z,2.43
2022-11-03T04:35:59.116Z,2.27
2022-11-03T04:38:27.342Z,2.17
2022-11-03T04:40:55.441Z,2.87
2022-11-03T04:43:24.033Z,2.70
2022-11-03T04:45:51.264Z,2.47
2022-11-03T04:48:20.630Z,2.27
2022-11-03T04:50:48.933Z,2.27
2022-11-03T04:53:17.900Z,1.93
2022-11-03T04:55:45.918Z,2.40
2022-11-03T04:58:20.477Z,2.00
2022-11-03T05:00:48.637Z,2.10
2022-11-03T05:03:18.067Z,2.57
2022-11-03T05:05:45.393Z,3.10
2022-11-03T05:08:12.851Z,2.87
2022-11-03T05:10:40.352Z,3.23
2022-11-03T05:13:10.466Z,2.63
2022-11-03T05:15:38.662Z,3.10
2022-11-03T05:18:14.629Z,2.77
2022-11-03T05:20:44.947Z,2.73
2022-11-03T05:23:12.713Z,2.70
2022-11-03T05:25:42.278Z,2.30
2022-11-03T05:28:29.583Z,2.50
2022-11-03T05:30:57.055Z,2.40
2022-11-03T05:33:24.091Z,2.50
2022-11-03T05:35:51.172Z,2.17
2022-11-03T05:38:20.187Z,2.27
2022-11-03T05:40:47.383Z,2.40
2022-11-03T05:43:15.328Z,2.83
2022-11-03T05:45:43.153Z,2.43
2022-11-03T05:48:23.841Z,2.90
2022-11-03T05:50:51.006Z,3.07
2022-11-03T05:53:28.994Z,3.13
2022-11-03T05:55:57.701Z,2.60
2022-11-03T05:58:34.576Z,2.43
2022-11-03T06:01:02.962Z,2.80
2022-11-03T06:03:31.163Z,2.70
2022-11-03T06:05:59.284Z,2.50
2022-11-03T06:08:27.499Z,2.70
2022-11-03T06:10:55.935Z,3.00
2022-11-03T06:13:30.374Z,3.37
2022-11-03T06:15:59.121Z,2.77
2022-11-03T06:18:27.062Z,2.80
2022-11-03T06:20:57.311Z,2.53
2022-11-03T06:23:24.734Z,2.90
2022-11-03T06:25:53.216Z,3.03
2022-11-03T06:28:30.115Z,3.13
2022-11-03T06:30:57.510Z,3.03
2022-11-03T06:33:26.689Z,3.33
2022-11-03T06:35:55.337Z,3.30
2022-11-03T06:38:24.528Z,3.30
2022-11-03T06:40:52.892Z,3.50
2022-11-03T06:43:22.933Z,3.00
2022-11-03T06:45:51.528Z,2.93
2022-11-03T06:48:22.527Z,2.83
2022-11-03T06:50:49.624Z,2.50
2022-11-03T06:53:21.029Z,2.47
2022-11-03T06:55:49.058Z,2.67
2022-11-03T06:58:19.025Z,2.90
2022-11-03T07:00:50.877Z,3.40
2022-11-03T07:03:21.982Z,3.10
2022-11-03T07:05:49.005Z,3.40
2022-11-03T07:08:32.850Z,3.27
2022-11-03T07:11:18.834Z,3.27
2022-11-03T07:13:47.011Z,3.37
2022-11-03T07:16:18.852Z,3.40
2022-11-03T07:18:47.715Z,3.40
2022-11-03T07:21:20.606Z,3.10
2022-11-03T07:23:47.741Z,3.70
2022-11-03T07:26:14.812Z,3.70
2022-11-03T07:28:41.882Z,3.50
2022-11-03T07:31:16.404Z,3.40
2022-11-03T07:33:44.019Z,3.40
2022-11-03T07:36:16.729Z,2.93
2022-11-03T07:38:44.974Z,3.07
2022-11-03T07:41:16.618Z,2.80
2022-11-03T07:43:49.350Z,3.20
2022-11-03T07:46:20.247Z,2.87
2022-11-03T07:48:48.044Z,2.90
2022-11-03T07:51:17.571Z,3.00
2022-11-03T07:53:46.329Z,3.10
2022-11-03T07:56:19.615Z,3.43
2022-11-03T07:58:47.410Z,3.20
2022-11-03T08:01:27.778Z,2.27
2022-11-03T08:03:56.956Z,2.20
2022-11-03T08:06:24.014Z,2.17
2022-11-03T08:08:51.067Z,2.00
2022-11-03T08:11:18.183Z,2.03
2022-11-03T08:13:45.265Z,2.20
2022-11-03T08:16:12.325Z,2.10
2022-11-03T08:18:39.945Z,2.20
2022-11-03T08:21:07.049Z,2.10
2022-11-03T08:23:34.316Z,1.93
2022-11-03T08:26:01.743Z,2.10
2022-11-03T08:28:28.886Z,1.97
2022-11-03T08:31:02.295Z,2.40
2022-11-03T08:36:02.270Z,2.03
2022-11-03T08:38:29.460Z,2.00
2022-11-03T08:40:58.256Z,1.90
2022-11-03T08:43:25.410Z,2.10
2022-11-03T08:45:53.785Z,2.00
2022-11-03T08:48:23.902Z,1.70
2022-11-03T08:50:50.959Z,2.23
2022-11-03T08:53:18.025Z,1.90
2022-11-03T08:55:45.027Z,2.20
2022-11-03T08:58:12.179Z,1.50
2022-11-03T09:00:41.149Z,2.00
2022-11-03T09:03:08.614Z,2.27
2022-11-03T09:05:36.150Z,1.90
2022-11-03T09:10:50.257Z,2.43
2022-11-03T09:13:17.305Z,1.73
2022-11-03T09:15:44.496Z,1.60
2022-11-03T09:18:11.575Z,1.80
2022-11-03T09:20:38.624Z,1.70
2022-11-03T09:23:05.892Z,1.83
2022-11-03T09:25:33.025Z,1.83
2022-11-03T09:28:00.040Z,1.50
2022-11-03T09:30:27.116Z,1.70
2022-11-03T09:32:54.167Z,1.93
2022-11-03T09:35:21.245Z,2.00
2022-11-03T09:37:48.280Z,1.90
2022-11-03T09:40:16.716Z,1.83
2022-11-03T09:42:43.965Z,1.50
2022-11-03T09:45:11.580Z,1.70
2022-11-03T09:47:43.190Z,1.60
2022-11-03T09:50:15.066Z,1.97
2022-11-03T09:52:44.178Z,1.60
2022-11-03T09:55:24.771Z,1.60
2022-11-03T09:57:59.850Z,1.50
2022-11-03T10:00:27.349Z,1.50
2022-11-03T10:02:54.912Z,1.77
2022-11-03T10:05:26.310Z,1.90
2022-11-03T10:10:27.444Z,1.60
2022-11-03T10:12:55.163Z,1.63
2022-11-03T10:15:23.306Z,1.57
2022-11-03T10:17:53.393Z,1.70
2022-11-03T10:20:22.083Z,1.73
2022-11-03T10:22:52.002Z,1.80
2022-11-03T10:25:31.446Z,1.87
2022-11-03T10:28:16.592Z,1.80
2022-11-03T10:33:51.971Z,1.67
2022-11-03T10:36:19.148Z,1.47
2022-11-03T10:38:47.682Z,1.33
2022-11-03T10:41:17.508Z,1.20
2022-11-03T10:43:45.740Z,1.30
2022-11-03T10:46:29.603Z,1.43
2022-11-03T10:51:34.947Z,1.10
2022-11-03T10:54:02.926Z,1.10
2022-11-03T10:56:30.453Z,1.00
2022-11-03T11:01:30.367Z,1.37
2022-11-03T11:03:58.283Z,1.30
2022-11-03T11:06:26.422Z,1.50
2022-11-03T11:08:59.629Z,1.30
2022-11-03T11:11:27.112Z,1.40
2022-11-03T11:14:12.972Z,1.40
2022-11-03T11:16:51.141Z,1.50
2022-11-03T11:19:18.336Z,1.23
2022-11-03T11:21:47.632Z,1.23
2022-11-03T11:24:14.978Z,1.43
2022-11-03T11:26:42.133Z,1.33
2022-11-03T11:29:09.234Z,1.60
2022-11-03T11:32:07.410Z,1.43
2022-11-03T11:34:37.484Z,1.50
2022-11-03T11:37:07.721Z,1.50
2022-11-03T11:39:35.874Z,1.47
2022-11-03T11:42:13.664Z,1.63
2022-11-03T11:44:43.698Z,1.50
2022-11-03T11:47:25.946Z,1.60
2022-11-03T11:50:10.720Z,1.27
2022-11-03T11:52:48.983Z,1.40
2022-11-03T11:55:19.316Z,1.50
2022-11-03T11:57:46.785Z,1.40
2022-11-03T12:00:20.307Z,1.30
2022-11-03T12:02:48.140Z,1.80
2022-11-03T12:05:26.129Z,1.33
2022-11-03T12:07:53.208Z,1.80
2022-11-03T12:10:26.186Z,1.63
2022-11-03T12:12:53.576Z,1.60
2022-11-03T12:15:39.203Z,1.53
2022-11-03T12:18:25.024Z,1.70
2022-11-03T12:20:52.063Z,1.80
2022-11-03T12:23:37.372Z,2.00
2022-11-03T12:26:05.416Z,1.77
2022-11-03T12:28:33.344Z,2.17
2022-11-03T12:33:32.448Z,1.90
2022-11-03T12:35:59.501Z,2.00
2022-11-03T12:38:26.531Z,2.00
2022-11-03T12:40:53.799Z,2.47
2022-11-03T12:43:20.974Z,2.20
2022-11-03T12:45:48.064Z,2.40
2022-11-03T12:48:15.136Z,2.50
2022-11-03T12:50:42.265Z,2.40
2022-11-03T12:53:09.701Z,2.33
2022-11-03T12:55:39.289Z,2.47
2022-11-03T12:58:09.556Z,2.27
2022-11-03T13:00:36.826Z,2.27
2022-11-03T13:03:03.939Z,2.10
2022-11-03T13:05:31.066Z,2.40
2022-11-03T13:07:58.136Z,2.40
2022-11-03T13:10:25.183Z,2.80
2022-11-03T13:12:52.216Z,2.60
2022-11-03T13:15:19.318Z,2.70
2022-11-03T13:18:11.572Z,2.57
2022-11-03T13:20:33.752Z,2.80
2022-11-03T13:23:00.829Z,3.20
2022-11-03T13:25:29.240Z,2.67
2022-11-03T13:27:57.022Z,2.73
2022-11-03T13:30:25.066Z,2.60
2022-11-03T13:32:52.235Z,3.10
2022-11-03T13:35:19.489Z,2.80
2022-11-03T13:37:46.768Z,2.80
2022-11-03T13:40:35.764Z,2.70
2022-11-03T13:43:01.438Z,2.93
2022-11-03T13:45:28.518Z,2.90
2022-11-03T13:50:42.965Z,2.87
2022-11-03T13:56:00.682Z,2.70
2022-11-03T14:01:20.094Z,2.53
2022-11-03T14:06:34.443Z,2.70
2022-11-03T14:09:01.474Z,2.87
2022-11-03T14:11:47.299Z,2.97
2022-11-03T14:14:14.512Z,2.87
2022-11-03T14:16:41.606Z,3.10
2022-11-03T14:19:08.711Z,3.00
2022-11-03T14:21:37.474Z,3.33
2022-11-03T14:24:05.957Z,3.40
2022-11-03T14:26:42.200Z,3.30
2022-11-03T14:29:10.218Z,3.20
2022-11-03T14:31:37.267Z,3.40
2022-11-03T14:34:04.294Z,3.40
2022-11-03T14:36:31.333Z,3.87
2022-11-03T14:38:58.490Z,3.40
2022-11-03T14:41:44.479Z,3.40
2022-11-03T14:44:11.540Z,3.80
2022-11-03T14:46:38.603Z,3.30
2022-11-03T14:49:05.652Z,3.57
2022-11-03T14:51:32.681Z,3.70
2022-11-03T14:53:59.696Z,3.80
2022-11-03T14:56:26.837Z,3.93
2022-11-03T14:58:54.458Z,3.67
2022-11-03T15:01:21.578Z,3.47
2022-11-03T15:03:48.764Z,3.73
2022-11-03T15:06:15.826Z,4.33
2022-11-03T15:08:43.176Z,3.73
2022-11-03T15:11:10.538Z,3.97
2022-11-03T15:13:41.745Z,3.90
2022-11-03T15:16:13.016Z,4.23
2022-11-03T15:18:40.117Z,3.77
2022-11-03T15:21:07.236Z,4.10
2022-11-03T15:26:21.305Z,4.13
2022-11-03T15:28:48.318Z,3.80
2022-11-03T15:31:15.571Z,3.80
2022-11-03T15:33:42.598Z,3.80
2022-11-03T15:36:09.865Z,4.00
2022-11-03T15:38:37.006Z,3.73
2022-11-03T15:41:16.467Z,4.00
2022-11-03T15:43:44.358Z,3.77
2022-11-03T15:46:11.640Z,4.40
2022-11-03T15:48:38.967Z,3.77
2022-11-03T15:51:06.502Z,4.03
2022-11-03T15:53:33.676Z,3.80
2022-11-03T15:56:01.055Z,3.83
2022-11-03T15:58:28.187Z,3.97
2022-11-03T16:00:55.344Z,3.47
2022-11-03T16:03:22.576Z,3.50
2022-11-03T16:05:49.703Z,3.60
2022-11-03T16:08:16.769Z,3.60
2022-11-03T16:10:50.572Z,3.60
2022-11-03T16:13:20.341Z,3.50
2022-11-03T16:15:47.390Z,3.73
2022-11-03T16:18:14.408Z,3.50
2022-11-03T16:20:41.502Z,3.83
2022-11-03T16:23:08.516Z,3.40
2022-11-03T16:25:35.586Z,3.73
2022-11-03T16:28:02.640Z,3.70
2022-11-03T16:30:29.820Z,3.63
2022-11-03T16:32:56.903Z,3.30
2022-11-03T16:35:24.020Z,3.30
2022-11-03T16:37:51.057Z,3.50
2022-11-03T16:40:19.895Z,3.57
2022-11-03T16:42:47.374Z,3.53
2022-11-03T16:45:16.371Z,3.53
2022-11-03T16:47:43.497Z,3.40
2022-11-03T16:50:10.803Z,3.80
2022-11-03T16:52:37.914Z,3.40
2022-11-03T16:55:05.284Z,3.80
2022-11-03T16:57:32.326Z,3.57
2022-11-03T16:59:59.380Z,3.70
2022-11-03T17:02:28.020Z,3.77
2022-11-03T17:04:55.259Z,3.47
2022-11-03T17:07:22.364Z,4.40
2022-11-03T17:09:49.436Z,3.67
2022-11-03T17:12:16.551Z,3.90
2022-11-03T17:14:43.658Z,4.07
2022-11-03T17:17:10.680Z,4.20
2022-11-03T17:19:37.751Z,3.67
2022-11-03T17:22:05.105Z,4.60
2022-11-03T17:24:32.227Z,4.00
2022-11-03T17:27:04.525Z,4.77
2022-11-03T17:29:31.624Z,3.97
2022-11-03T17:31:58.739Z,4.20
2022-11-03T17:34:25.877Z,4.50
2022-11-03T17:36:53.489Z,4.20
2022-11-03T17:39:22.960Z,4.37
2022-11-03T17:41:50.062Z,4.20
2022-11-03T17:44:17.795Z,4.30
2022-11-03T17:46:45.441Z,4.57
2022-11-03T17:49:12.453Z,4.70
2022-11-03T17:51:41.891Z,4.57
2022-11-03T17:54:10.108Z,4.40
2022-11-03T17:56:37.140Z,4.50
2022-11-03T17:59:04.525Z,4.47
2022-11-03T18:01:31.696Z,4.63
2022-11-03T18:03:59.170Z,4.73
2022-11-03T18:06:26.247Z,4.90
2022-11-03T18:08:53.356Z,4.53
2022-11-03T18:11:42.659Z,4.63
2022-11-03T18:14:09.810Z,4.53
2022-11-03T18:16:36.981Z,5.17
2022-11-03T18:19:04.211Z,5.20
2022-11-03T18:21:31.482Z,4.87
2022-11-03T18:23:58.759Z,4.93
2022-11-03T18:26:26.741Z,4.77
2022-11-03T18:28:54.245Z,5.03
2022-11-03T18:31:22.570Z,5.13
2022-11-03T18:33:50.079Z,5.07
2022-11-03T18:36:18.518Z,5.13
2022-11-03T18:38:45.996Z,5.10
2022-11-03T18:41:35.562Z,5.13
2022-11-03T18:44:03.209Z,5.40
2022-11-03T18:46:30.392Z,4.90
2022-11-03T18:48:57.442Z,5.10
2022-11-03T18:51:24.498Z,5.63
2022-11-03T18:53:51.755Z,5.07
2022-11-03T18:56:20.087Z,5.60
2022-11-03T18:58:47.209Z,5.23
2022-11-03T19:01:21.658Z,5.40
2022-11-03T19:03:49.203Z,5.40
2022-11-03T19:06:16.785Z,5.27
2022-11-03T19:08:44.519Z,5.47
2022-11-03T19:11:11.968Z,5.53
2022-11-03T19:13:41.659Z,5.20
2022-11-03T19:16:13.336Z,5.27
2022-11-03T19:18:40.981Z,5.30
2022-11-03T19:21:18.808Z,6.20
2022-11-03T19:23:48.064Z,5.60
2022-11-03T19:26:26.786Z,6.00
2022-11-03T19:28:56.983Z,6.47
2022-11-03T19:31:26.160Z,5.93
2022-11-03T19:33:56.253Z,6.20
2022-11-03T19:36:23.335Z,6.40
2022-11-03T19:38:50.368Z,6.80
2022-11-03T19:41:36.788Z,5.77
2022-11-03T19:44:09.332Z,5.90
2022-11-03T19:46:36.515Z,6.20
2022-11-03T19:49:03.864Z,6.30
2022-11-03T19:51:30.944Z,6.43
2022-11-03T19:53:58.185Z,5.77
2022-11-03T19:56:25.360Z,6.00
2022-11-03T19:58:52.439Z,6.30
2022-11-03T20:01:19.651Z,6.00
2022-11-03T20:03:46.811Z,5.67
2022-11-03T20:06:18.978Z,6.10
2022-11-03T20:08:47.286Z,6.20
2022-11-03T20:11:14.517Z,5.93
2022-11-03T20:13:43.311Z,5.77
2022-11-03T20:16:17.045Z,6.13
2022-11-03T20:18:44.281Z,5.60
2022-11-03T20:21:18.954Z,6.10
2022-11-03T20:23:46.877Z,5.87
2022-11-03T20:26:15.975Z,5.40
2022-11-03T20:28:43.449Z,5.73
2022-11-03T20:31:11.679Z,5.53
2022-11-03T20:33:39.610Z,6.00
2022-11-03T20:36:06.829Z,6.07
2022-11-03T20:38:34.036Z,6.10
2022-11-03T20:41:03.520Z,5.77
2022-11-03T20:43:40.645Z,6.07
2022-11-03T20:46:27.106Z,5.60
2022-11-03T20:48:57.701Z,5.67
2022-11-03T20:51:26.347Z,5.70
2022-11-03T20:53:53.901Z,6.20
2022-11-03T20:56:22.829Z,5.53
2022-11-03T20:58:49.876Z,5.90
2022-11-03T21:01:18.407Z,6.43
2022-11-03T21:03:58.958Z,5.60
2022-11-03T21:06:27.059Z,5.63
2022-11-03T21:08:54.084Z,5.23
2022-11-03T21:11:27.825Z,5.70
2022-11-03T21:14:00.110Z,5.43
2022-11-03T21:16:46.814Z,5.63
2022-11-03T21:19:35.418Z,5.60
2022-11-03T21:22:02.719Z,5.40
2022-11-03T21:24:29.804Z,5.20
2022-11-03T21:26:56.840Z,5.60
2022-11-03T21:29:58.554Z,5.70
2022-11-03T21:32:12.578Z,5.37
2022-11-03T21:34:39.823Z,5.30
2022-11-03T21:37:07.346Z,5.03
2022-11-03T21:39:34.419Z,5.17
2022-11-03T21:42:20.209Z,5.27
2022-11-03T21:44:47.288Z,4.90
2022-11-03T21:47:14.348Z,5.00
2022-11-03T21:49:44.447Z,4.73
2022-11-03T21:52:12.416Z,5.23
2022-11-03T21:54:42.961Z,4.60
2022-11-03T21:57:11.364Z,4.63
2022-11-03T21:59:38.564Z,4.80
2022-11-03T22:02:06.190Z,5.27
2022-11-03T22:04:33.312Z,4.90
2022-11-03T22:07:00.714Z,4.70
2022-11-03T22:09:28.087Z,4.90
2022-11-03T22:11:55.401Z,4.50
2022-11-03T22:14:22.454Z,4.63
2022-11-03T22:16:49.622Z,4.83
2022-11-03T22:19:35.566Z,4.70
2022-11-03T22:22:22.340Z,4.77
2022-11-03T22:25:08.237Z,4.43
2022-11-03T22:27:35.671Z,4.43
2022-11-03T22:30:21.558Z,4.60
2022-11-03T22:32:53.017Z,4.30
2022-11-03T22:35:39.398Z,4.50
2022-11-03T22:38:13.577Z,5.37
2022-11-03T22:41:00.113Z,4.40
2022-11-03T22:43:46.724Z,4.73
2022-11-03T22:46:14.406Z,4.60
2022-11-03T22:48:41.656Z,4.90
2022-11-03T22:51:15.776Z,4.93
2022-11-03T22:54:02.453Z,4.50
2022-11-03T22:56:30.511Z,4.37
2022-11-03T22:58:57.683Z,4.77
2022-11-03T23:01:29.274Z,4.80
2022-11-03T23:03:56.936Z,4.63
2022-11-03T23:06:25.125Z,4.87
2022-11-03T23:08:52.870Z,4.33
2022-11-03T23:11:21.267Z,4.33
2022-11-03T23:13:52.265Z,4.63
2022-11-03T23:16:20.409Z,4.50
2022-11-03T23:19:06.808Z,4.77
2022-11-03T23:21:34.626Z,4.80
2022-11-03T23:24:20.607Z,5.17
2022-11-03T23:26:47.800Z,4.30
2022-11-03T23:29:15.082Z,4.67
2022-11-03T23:31:43.003Z,4.90
2022-11-03T23:34:10.416Z,4.63
2022-11-03T23:36:37.806Z,5.10
2022-11-03T23:39:06.194Z,5.17
2022-11-03T23:41:33.258Z,5.10
2022-11-03T23:44:00.414Z,5.03
2022-11-03T23:46:47.527Z,4.40
2022-11-03T23:49:14.775Z,4.57
2022-11-03T23:51:44.937Z,4.90
2022-11-03T23:54:12.502Z,4.73
2022-11-03T23:56:59.963Z,4.70
2022-11-03T23:59:27.629Z,5.23
